Time;durP1;ratioP1;P1;durP2;ratioP2;P2;SDS_P1;SDS_P2;PMS_P1;PMS_P2;Temp;Humidity;BMP_temperature;BMP_pressure;BME280_temperature;BME280_humidity;BME280_pressure;Samples;Min_cycle;Max_cycle;Signal;HPM_P1;HPM_P2
2021/09/11 00:01:13;;;;;;;11.03;10.03;;;17.90;99.90;;;;;;5014239;28;20278;-69
2021/09/11 00:03:43;;;;;;;12.90;11.70;;;17.80;99.90;;;;;;5009593;28;20240;-68
2021/09/11 00:06:11;;;;;;;12.60;11.40;;;17.90;99.90;;;;;;5009614;28;20327;-66
2021/09/11 00:08:40;;;;;;;12.37;10.70;;;17.80;99.90;;;;;;5014882;28;20604;-69
2021/09/11 00:11:08;;;;;;;12.23;11.03;;;17.80;99.90;;;;;;5020682;28;20238;-69
2021/09/11 00:13:38;;;;;;;11.77;10.70;;;17.80;99.90;;;;;;5016794;28;20248;-68
2021/09/11 00:16:07;;;;;;;13.60;12.00;;;17.80;99.90;;;;;;5014420;28;20263;-69
2021/09/11 00:18:35;;;;;;;12.23;11.07;;;17.80;99.90;;;;;;5011147;28;20239;-67
2021/09/11 00:21:05;;;;;;;13.60;11.20;;;17.80;99.90;;;;;;5008361;28;20606;-68
2021/09/11 00:23:33;;;;;;;13.60;12.20;;;17.90;99.90;;;;;;5010287;28;20280;-68
2021/09/11 00:26:01;;;;;;;11.43;10.43;;;17.90;99.90;;;;;;5012856;28;20369;-68
2021/09/11 00:28:29;;;;;;;13.00;11.80;;;17.90;99.90;;;;;;5015118;28;20319;-68
2021/09/11 00:30:58;;;;;;;13.00;11.70;;;17.90;99.90;;;;;;5002625;28;20330;-69
2021/09/11 00:33:27;;;;;;;13.03;11.83;;;17.90;99.90;;;;;;5012970;28;20235;-69
2021/09/11 00:35:55;;;;;;;13.40;12.03;;;17.90;99.90;;;;;;5017213;28;20264;-68
2021/09/11 00:38:24;;;;;;;12.00;11.00;;;17.80;99.90;;;;;;5011651;28;20229;-69
2021/09/11 00:40:52;;;;;;;13.13;11.93;;;17.90;99.90;;;;;;5016667;28;20242;-67
2021/09/11 00:43:24;;;;;;;13.70;12.40;;;17.90;99.90;;;;;;5013082;28;20286;-68
2021/09/11 00:45:53;;;;;;;13.60;12.23;;;17.90;99.90;;;;;;5012882;28;20576;-68
2021/09/11 00:48:21;;;;;;;16.40;12.77;;;17.90;99.90;;;;;;5004654;28;20603;-68
2021/09/11 00:50:49;;;;;;;13.23;11.93;;;17.90;99.90;;;;;;5019198;28;20231;-69
2021/09/11 00:53:19;;;;;;;14.57;13.07;;;18.00;99.90;;;;;;5011563;28;20601;-69
2021/09/11 00:55:49;;;;;;;13.57;12.27;;;17.90;99.90;;;;;;5018344;28;20235;-68
2021/09/11 00:58:17;;;;;;;14.10;12.40;;;17.90;99.90;;;;;;5018664;28;20266;-68
2021/09/11 01:00:46;;;;;;;13.50;12.10;;;17.90;99.90;;;;;;5013844;28;20864;-68
2021/09/11 01:03:15;;;;;;;14.03;12.60;;;17.90;99.90;;;;;;5011732;28;20258;-68
2021/09/11 01:05:45;;;;;;;14.87;13.33;;;18.00;99.90;;;;;;5023429;28;20235;-69
2021/09/11 01:08:13;;;;;;;15.43;13.93;;;18.00;99.90;;;;;;5014958;28;20255;-68
2021/09/11 01:10:42;;;;;;;14.33;12.80;;;17.90;99.90;;;;;;5022756;28;20296;-68
2021/09/11 01:13:11;;;;;;;14.53;13.03;;;18.00;99.90;;;;;;5016011;28;20252;-69
2021/09/11 01:15:43;;;;;;;14.23;12.93;;;17.90;99.90;;;;;;5022717;28;20336;-69
2021/09/11 01:18:11;;;;;;;17.80;15.93;;;18.00;99.90;;;;;;5015375;28;20262;-68
2021/09/11 01:20:39;;;;;;;17.80;15.97;;;18.10;99.90;;;;;;5021485;28;20580;-68
2021/09/11 01:23:08;;;;;;;24.07;20.83;;;18.00;99.90;;;;;;5005386;28;20251;-69
2021/09/11 01:25:37;;;;;;;21.47;19.27;;;18.00;99.90;;;;;;5019491;28;20235;-69
2021/09/11 01:28:05;;;;;;;25.30;19.63;;;18.00;99.90;;;;;;5009561;28;20732;-69
2021/09/11 01:30:33;;;;;;;25.20;20.33;;;18.00;99.90;;;;;;5014828;28;20230;-68
2021/09/11 01:33:02;;;;;;;23.13;19.30;;;18.10;99.90;;;;;;5016860;28;20338;-68
2021/09/11 01:35:30;;;;;;;27.23;21.57;;;18.10;99.90;;;;;;5014970;28;20243;-69
2021/09/11 01:37:58;;;;;;;24.50;20.57;;;18.00;99.90;;;;;;5014721;28;20270;-69
2021/09/11 01:40:26;;;;;;;26.70;22.07;;;18.00;99.90;;;;;;5021220;28;20650;-69
2021/09/11 01:42:56;;;;;;;27.00;22.43;;;18.00;99.90;;;;;;5016901;28;20766;-69
2021/09/11 01:45:24;;;;;;;26.53;22.40;;;18.00;99.90;;;;;;5011153;28;20239;-69
2021/09/11 01:47:53;;;;;;;27.53;22.20;;;18.10;99.90;;;;;;5013130;28;20800;-69
2021/09/11 01:50:22;;;;;;;27.10;22.77;;;18.00;99.90;;;;;;5008453;28;20753;-69
2021/09/11 01:52:51;;;;;;;27.43;22.80;;;18.10;99.90;;;;;;5007528;28;20264;-70
2021/09/11 01:55:21;;;;;;;29.20;23.83;;;18.10;99.90;;;;;;5007527;28;20239;-69
2021/09/11 01:57:49;;;;;;;29.20;23.70;;;18.00;99.90;;;;;;5012654;28;20320;-69
2021/09/11 02:00:20;;;;;;;29.83;23.17;;;18.00;99.90;;;;;;5016112;28;20267;-69
2021/09/11 02:02:48;;;;;;;31.23;25.93;;;18.10;99.90;;;;;;5007199;28;20312;-69
2021/09/11 02:05:18;;;;;;;31.80;24.80;;;18.10;99.90;;;;;;5006518;28;20262;-68
2021/09/11 02:07:46;;;;;;;30.07;24.80;;;18.00;99.90;;;;;;5009408;28;20727;-68
2021/09/11 02:10:17;;;;;;;32.10;25.30;;;18.00;99.90;;;;;;5017712;28;20243;-68
2021/09/11 02:12:46;;;;;;;29.30;25.40;;;18.00;99.90;;;;;;5018104;28;20322;-68
2021/09/11 02:15:15;;;;;;;29.27;25.27;;;18.00;99.90;;;;;;5010789;28;20247;-70
2021/09/11 02:17:45;;;;;;;31.03;25.63;;;17.90;99.90;;;;;;5018696;28;20244;-69
2021/09/11 02:20:13;;;;;;;33.33;25.70;;;18.00;99.90;;;;;;5010920;28;20232;-69
2021/09/11 02:22:42;;;;;;;30.63;25.43;;;18.00;99.90;;;;;;5011859;28;20243;-66
2021/09/11 02:25:11;;;;;;;30.57;26.13;;;18.00;99.90;;;;;;5016054;28;20232;-68
2021/09/11 02:27:40;;;;;;;35.00;26.70;;;18.00;99.90;;;;;;5006776;28;20712;-69
2021/09/11 02:30:10;;;;;;;34.67;27.47;;;17.90;99.90;;;;;;5010717;28;20275;-68
2021/09/11 02:32:38;;;;;;;37.10;28.30;;;17.90;99.90;;;;;;5014946;28;20590;-69
2021/09/11 02:35:09;;;;;;;33.83;28.00;;;18.00;99.90;;;;;;5018003;28;20269;-70
2021/09/11 02:37:37;;;;;;;36.83;27.93;;;17.90;99.90;;;;;;5017505;28;20331;-69
2021/09/11 02:40:06;;;;;;;38.03;27.50;;;18.00;99.90;;;;;;5011109;28;20626;-69
2021/09/11 02:42:35;;;;;;;36.17;27.73;;;18.00;99.90;;;;;;5018063;28;20242;-69
2021/09/11 02:45:03;;;;;;;37.30;29.50;;;18.00;99.90;;;;;;5016653;28;20234;-69
2021/09/11 02:47:31;;;;;;;38.70;29.43;;;18.00;99.90;;;;;;5014079;28;20328;-68
2021/09/11 02:49:59;;;;;;;40.70;31.77;;;18.10;99.90;;;;;;5015936;28;20240;-67
2021/09/11 02:52:28;;;;;;;41.47;30.87;;;18.10;99.90;;;;;;5013663;28;20509;-68
2021/09/11 02:54:57;;;;;;;44.97;32.37;;;18.10;99.90;;;;;;5015478;28;20234;-69
2021/09/11 02:57:25;;;;;;;50.27;33.67;;;18.10;99.90;;;;;;5003278;28;20257;-68
2021/09/11 02:59:53;;;;;;;44.10;31.07;;;18.10;99.90;;;;;;5016035;28;20232;-69
2021/09/11 03:02:21;;;;;;;48.10;32.80;;;18.10;99.90;;;;;;5007684;28;20229;-69
2021/09/11 03:04:49;;;;;;;48.13;33.70;;;18.10;99.90;;;;;;5011102;28;20609;-69
2021/09/11 03:07:17;;;;;;;47.13;33.17;;;18.10;99.90;;;;;;5013483;28;20235;-67
2021/09/11 03:09:47;;;;;;;47.17;33.27;;;18.20;99.90;;;;;;5016680;28;20836;-68
2021/09/11 03:12:15;;;;;;;47.07;34.97;;;18.20;99.90;;;;;;5009777;28;20228;-69
2021/09/11 03:14:43;;;;;;;46.50;33.37;;;18.20;99.90;;;;;;5012551;28;20610;-69
2021/09/11 03:17:11;;;;;;;48.03;34.93;;;18.20;99.90;;;;;;5011267;28;20248;-69
2021/09/11 03:19:39;;;;;;;46.07;33.83;;;18.10;99.90;;;;;;5012010;28;20247;-69
2021/09/11 03:22:07;;;;;;;44.07;34.07;;;18.10;99.90;;;;;;5012786;28;20273;-68
2021/09/11 03:24:35;;;;;;;49.17;35.83;;;18.20;99.90;;;;;;5013650;28;20235;-69
2021/09/11 03:27:05;;;;;;;49.10;35.47;;;18.20;99.90;;;;;;5007560;28;20319;-70
2021/09/11 03:29:34;;;;;;;50.47;35.70;;;18.20;99.90;;;;;;5005860;28;20238;-69
2021/09/11 03:32:02;;;;;;;47.13;35.20;;;18.10;99.90;;;;;;5021358;28;20251;-69
2021/09/11 03:34:30;;;;;;;44.23;34.13;;;18.10;99.90;;;;;;5007937;28;20271;-69
2021/09/11 03:36:59;;;;;;;49.40;35.47;;;18.10;99.90;;;;;;5017752;28;20238;-69
2021/09/11 03:39:27;;;;;;;42.33;32.40;;;18.10;99.90;;;;;;5009248;28;20571;-69
2021/09/11 03:41:55;;;;;;;42.33;32.43;;;18.10;99.90;;;;;;5008695;28;20550;-69
2021/09/11 03:44:24;;;;;;;43.43;32.87;;;18.10;99.90;;;;;;5009928;28;20676;-70
2021/09/11 03:46:53;;;;;;;42.40;31.27;;;18.10;99.90;;;;;;5013417;28;20235;-69
2021/09/11 03:49:21;;;;;;;45.87;32.27;;;18.20;99.90;;;;;;5004589;28;20323;-68
2021/09/11 03:51:49;;;;;;;39.20;30.47;;;18.20;99.90;;;;;;5015335;28;20299;-68
2021/09/11 03:54:17;;;;;;;40.67;29.63;;;18.20;99.90;;;;;;5002160;28;20238;-68
2021/09/11 03:56:45;;;;;;;38.23;29.93;;;18.20;99.90;;;;;;5011845;28;20229;-68
2021/09/11 03:59:13;;;;;;;39.93;30.93;;;18.20;99.90;;;;;;5013264;28;20238;-69
2021/09/11 04:01:43;;;;;;;40.63;30.33;;;18.20;99.90;;;;;;5020222;28;20239;-69
2021/09/11 04:04:11;;;;;;;39.40;29.27;;;18.20;99.90;;;;;;5008351;28;20289;-69
2021/09/11 04:06:39;;;;;;;40.10;28.57;;;18.20;99.90;;;;;;5019725;28;20225;-69
2021/09/11 04:09:07;;;;;;;37.33;30.07;;;18.30;99.90;;;;;;5011462;28;20580;-69
2021/09/11 04:11:36;;;;;;;37.73;27.23;;;18.20;99.90;;;;;;5028079;28;20241;-70
2021/09/11 04:14:04;;;;;;;40.57;30.13;;;18.30;99.90;;;;;;5020090;28;20243;-69
2021/09/11 04:16:32;;;;;;;43.57;29.67;;;18.30;99.90;;;;;;5013606;28;20246;-69
2021/09/11 04:19:01;;;;;;;43.90;30.77;;;18.30;99.90;;;;;;5012184;28;20264;-67
2021/09/11 04:21:29;;;;;;;43.37;29.57;;;18.30;99.90;;;;;;5011821;28;20276;-68
2021/09/11 04:23:58;;;;;;;44.23;33.87;;;18.30;99.90;;;;;;5011773;28;20333;-68
2021/09/11 04:26:26;;;;;;;46.07;32.67;;;18.20;99.90;;;;;;5018742;28;20242;-68
2021/09/11 04:28:54;;;;;;;45.63;34.73;;;18.20;99.90;;;;;;5013055;28;20255;-68
2021/09/11 04:31:22;;;;;;;44.50;33.73;;;18.20;99.90;;;;;;5015596;28;20235;-67
2021/09/11 04:33:50;;;;;;;46.23;33.47;;;18.30;99.90;;;;;;5013992;28;20699;-68
2021/09/11 04:36:19;;;;;;;41.80;32.07;;;18.20;99.90;;;;;;5010711;28;20802;-69
2021/09/11 04:38:48;;;;;;;43.67;34.37;;;18.20;99.90;;;;;;5021218;28;20236;-68
2021/09/11 04:41:16;;;;;;;44.87;32.77;;;18.10;99.90;;;;;;5018275;28;20228;-69
2021/09/11 04:43:44;;;;;;;47.20;34.30;;;18.10;99.90;;;;;;5015427;28;20249;-68
2021/09/11 04:46:12;;;;;;;53.83;37.00;;;18.10;99.90;;;;;;5011887;28;20224;-68
2021/09/11 04:48:40;;;;;;;53.27;37.37;;;18.20;99.90;;;;;;5015959;28;20318;-68
2021/09/11 04:51:08;;;;;;;51.40;33.77;;;18.10;99.90;;;;;;5011925;28;20338;-69
2021/09/11 04:53:38;;;;;;;48.33;33.00;;;18.20;99.90;;;;;;5012592;28;20263;-69
2021/09/11 04:56:06;;;;;;;52.07;35.30;;;18.10;99.90;;;;;;5014652;28;20323;-69
2021/09/11 04:58:34;;;;;;;60.17;38.53;;;18.20;99.90;;;;;;5007457;28;20263;-69
2021/09/11 05:01:02;;;;;;;56.07;38.23;;;18.20;99.90;;;;;;5010684;28;20237;-69
2021/09/11 05:03:30;;;;;;;69.20;39.97;;;18.20;99.90;;;;;;5010342;28;20271;-69
2021/09/11 05:05:59;;;;;;;69.73;40.57;;;18.20;99.90;;;;;;5012753;28;20322;-68
2021/09/11 05:08:27;;;;;;;74.47;40.37;;;18.10;99.90;;;;;;5016631;28;20238;-68
2021/09/11 05:10:56;;;;;;;66.00;40.23;;;18.10;99.90;;;;;;5009609;28;20240;-68
2021/09/11 05:13:24;;;;;;;73.53;42.23;;;18.10;99.90;;;;;;5009953;28;20248;-69
2021/09/11 05:15:52;;;;;;;87.20;45.80;;;18.10;99.90;;;;;;5019634;28;20585;-68
2021/09/11 05:18:20;;;;;;;86.67;47.57;;;18.10;99.90;;;;;;5005696;28;20324;-70
2021/09/11 05:20:49;;;;;;;82.13;44.57;;;18.10;99.90;;;;;;5009353;28;20787;-69
2021/09/11 05:23:17;;;;;;;93.53;45.33;;;18.10;99.90;;;;;;5010273;28;20670;-70
2021/09/11 05:25:45;;;;;;;92.67;46.80;;;18.10;99.90;;;;;;5015931;28;20720;-69
2021/09/11 05:28:14;;;;;;;89.93;45.90;;;18.20;99.90;;;;;;5004991;28;20260;-68
2021/09/11 05:30:42;;;;;;;84.77;43.77;;;18.20;99.90;;;;;;5016100;28;20245;-67
2021/09/11 05:33:10;;;;;;;78.67;42.83;;;18.20;99.90;;;;;;5014057;28;20251;-69
2021/09/11 05:35:41;;;;;;;89.47;44.13;;;18.30;99.90;;;;;;5013397;28;20891;-69
2021/09/11 05:38:09;;;;;;;87.07;44.17;;;18.30;99.90;;;;;;5009689;28;20267;-70
2021/09/11 05:40:37;;;;;;;80.37;44.60;;;18.30;99.90;;;;;;5021213;28;20277;-69
2021/09/11 05:43:06;;;;;;;81.10;43.80;;;18.30;99.90;;;;;;5006951;28;20244;-70
2021/09/11 05:45:35;;;;;;;77.33;42.67;;;18.30;99.90;;;;;;5010866;28;20247;-69
2021/09/11 05:48:04;;;;;;;74.10;41.67;;;18.30;99.90;;;;;;5010467;28;20769;-70
2021/09/11 05:50:32;;;;;;;83.47;44.80;;;18.30;99.90;;;;;;5016793;28;20248;-69
2021/09/11 05:53:00;;;;;;;84.43;44.57;;;18.30;99.90;;;;;;5013096;28;20327;-69
2021/09/11 05:55:29;;;;;;;80.37;42.90;;;18.30;99.90;;;;;;5010221;28;20228;-70
2021/09/11 05:57:57;;;;;;;81.03;42.77;;;18.30;99.90;;;;;;5011425;28;20270;-70
2021/09/11 06:00:25;;;;;;;78.17;43.83;;;18.40;99.90;;;;;;5007733;28;20231;-69
2021/09/11 06:02:54;;;;;;;78.40;43.97;;;18.40;99.90;;;;;;5009087;28;20264;-70
2021/09/11 06:05:24;;;;;;;75.57;42.97;;;18.40;99.90;;;;;;5021723;28;20240;-70
2021/09/11 06:07:52;;;;;;;78.03;43.57;;;18.40;99.90;;;;;;5019899;28;20327;-70
2021/09/11 06:10:20;;;;;;;76.77;43.13;;;18.50;99.90;;;;;;5016481;28;20594;-70
2021/09/11 06:12:48;;;;;;;78.53;42.97;;;18.50;99.90;;;;;;5009899;28;20255;-69
2021/09/11 06:15:18;;;;;;;79.07;42.53;;;18.50;99.90;;;;;;5012319;28;20232;-69
2021/09/11 06:17:46;;;;;;;79.30;43.23;;;18.50;99.90;;;;;;5018425;28;20326;-70
2021/09/11 06:20:15;;;;;;;79.00;41.57;;;18.50;99.90;;;;;;5013065;28;20236;-70
2021/09/11 06:22:43;;;;;;;75.63;42.13;;;18.60;99.90;;;;;;5006062;28;20315;-69
2021/09/11 06:25:13;;;;;;;68.77;40.30;;;18.60;99.90;;;;;;5010324;28;20651;-70
2021/09/11 06:27:41;;;;;;;71.03;41.00;;;18.60;99.90;;;;;;5018068;28;20289;-70
2021/09/11 06:30:11;;;;;;;67.40;38.13;;;18.60;99.90;;;;;;5013722;28;20255;-69
2021/09/11 06:32:39;;;;;;;71.97;41.10;;;18.70;99.90;;;;;;5005644;28;20256;-70
2021/09/11 06:35:08;;;;;;;69.13;38.43;;;18.70;99.90;;;;;;5018917;28;20699;-69
2021/09/11 06:37:37;;;;;;;68.47;40.23;;;18.70;99.90;;;;;;5012677;28;20246;-70
2021/09/11 06:40:07;;;;;;;79.30;40.53;;;18.70;99.90;;;;;;5017623;28;20232;-69
2021/09/11 06:42:35;;;;;;;67.97;39.50;;;18.80;99.90;;;;;;4996517;28;20250;-69
2021/09/11 06:45:05;;;;;;;68.40;39.90;;;18.70;99.90;;;;;;4999003;28;20238;-68
2021/09/11 06:47:34;;;;;;;66.37;39.90;;;18.70;99.90;;;;;;5000201;28;20247;-68
2021/09/11 06:50:05;;;;;;;65.40;39.63;;;18.80;99.90;;;;;;5005061;28;20341;-68
2021/09/11 06:52:34;;;;;;;66.37;39.73;;;18.70;99.90;;;;;;4981181;28;20344;-69
2021/09/11 06:55:03;;;;;;;63.97;38.77;;;18.70;99.90;;;;;;4998986;28;20230;-69
2021/09/11 06:57:31;;;;;;;67.33;40.33;;;18.70;99.90;;;;;;5001134;28;20275;-69
2021/09/11 06:59:59;;;;;;;62.83;39.47;;;18.70;99.90;;;;;;4992336;28;20770;-69
2021/09/11 07:02:28;;;;;;;68.40;40.67;;;18.70;99.90;;;;;;4992068;28;20334;-70
2021/09/11 07:04:56;;;;;;;62.80;38.83;;;18.70;99.90;;;;;;4993744;28;20239;-69
2021/09/11 07:07:24;;;;;;;69.87;41.63;;;18.80;99.90;;;;;;4999662;28;20238;-69
2021/09/11 07:09:52;;;;;;;66.67;40.93;;;18.80;99.90;;;;;;5001175;28;20247;-69
2021/09/11 07:12:23;;;;;;;66.63;41.97;;;18.90;99.90;;;;;;5001552;28;20267;-69
2021/09/11 07:14:51;;;;;;;66.47;41.37;;;18.80;99.90;;;;;;4995309;28;20253;-68
2021/09/11 07:17:19;;;;;;;63.10;40.40;;;18.90;99.90;;;;;;5002695;28;20267;-70
2021/09/11 07:19:47;;;;;;;68.17;41.50;;;19.00;99.90;;;;;;4991070;28;20759;-69
2021/09/11 07:22:16;;;;;;;61.57;40.63;;;19.00;99.90;;;;;;4991454;28;20259;-69
2021/09/11 07:24:44;;;;;;;59.40;39.77;;;19.00;99.90;;;;;;4993359;28;20240;-70
2021/09/11 07:27:12;;;;;;;62.40;39.33;;;19.00;99.90;;;;;;4993897;28;20326;-69
2021/09/11 07:29:41;;;;;;;62.83;40.67;;;19.10;99.90;;;;;;4993431;28;21475;-69
2021/09/11 07:32:10;;;;;;;58.97;39.20;;;19.10;99.90;;;;;;5001233;28;20693;-69
2021/09/11 07:34:38;;;;;;;59.37;38.07;;;19.10;99.90;;;;;;4994232;28;20821;-69
2021/09/11 07:37:06;;;;;;;53.03;37.63;;;19.10;99.90;;;;;;4994893;28;20247;-68
2021/09/11 07:39:34;;;;;;;57.97;38.87;;;19.10;99.90;;;;;;4996338;28;20237;-69
2021/09/11 07:42:02;;;;;;;61.77;39.20;;;19.10;99.90;;;;;;4995104;28;21226;-69
2021/09/11 07:44:30;;;;;;;51.50;35.87;;;19.20;99.90;;;;;;4991643;28;20327;-70
2021/09/11 07:47:03;;;;;;;52.30;36.37;;;19.10;99.90;;;;;;4992814;28;20248;-69
2021/09/11 07:49:32;;;;;;;54.03;36.40;;;19.10;99.90;;;;;;4993497;28;20253;-70
2021/09/11 07:52:00;;;;;;;52.60;35.90;;;19.10;99.90;;;;;;5004182;28;20330;-64
2021/09/11 07:54:29;;;;;;;55.30;36.70;;;19.10;99.90;;;;;;4996017;28;20739;-65
2021/09/11 07:56:57;;;;;;;58.07;38.73;;;19.10;99.90;;;;;;4996266;28;20249;-67
2021/09/11 07:59:25;;;;;;;56.60;37.10;;;19.10;99.90;;;;;;4995374;28;20815;-67
2021/09/11 08:01:53;;;;;;;56.23;38.37;;;19.20;99.90;;;;;;4991718;28;20626;-66
2021/09/11 08:04:23;;;;;;;49.60;34.63;;;19.30;99.90;;;;;;5004912;28;20720;-66
2021/09/11 08:06:51;;;;;;;57.07;37.43;;;19.40;99.90;;;;;;5011881;28;20239;-65
2021/09/11 08:09:19;;;;;;;56.73;37.13;;;19.40;99.90;;;;;;5005209;28;20616;-65
2021/09/11 08:11:47;;;;;;;54.63;36.77;;;19.40;99.90;;;;;;5008091;28;20248;-65
2021/09/11 08:14:15;;;;;;;55.03;37.23;;;19.40;99.90;;;;;;5011622;28;20806;-65
2021/09/11 08:16:43;;;;;;;53.07;35.23;;;19.50;99.90;;;;;;5006514;28;20240;-65
2021/09/11 08:19:11;;;;;;;52.80;36.33;;;19.50;99.90;;;;;;5007024;28;20236;-64
2021/09/11 08:21:41;;;;;;;54.50;36.77;;;19.50;99.90;;;;;;5008238;28;20318;-65
2021/09/11 08:24:09;;;;;;;55.53;35.23;;;19.50;99.90;;;;;;5004175;28;20596;-64
2021/09/11 08:26:37;;;;;;;55.13;36.37;;;19.60;99.90;;;;;;4999958;28;21140;-65
2021/09/11 08:29:06;;;;;;;50.20;35.13;;;19.70;99.90;;;;;;4999630;28;20236;-65
2021/09/11 08:31:34;;;;;;;47.57;34.37;;;19.80;99.90;;;;;;5012989;28;20278;-65
2021/09/11 08:34:02;;;;;;;45.50;33.70;;;19.90;99.90;;;;;;4998591;28;20244;-66
2021/09/11 08:36:30;;;;;;;46.40;34.37;;;19.90;99.90;;;;;;5005529;28;20244;-65
2021/09/11 08:39:16;;;;;;;49.40;33.47;;;20.00;99.90;;;;;;5009973;28;20241;-65
2021/09/11 08:41:44;;;;;;;45.50;33.13;;;20.00;99.90;;;;;;5016807;28;20241;-65
2021/09/11 08:44:12;;;;;;;45.17;31.33;;;20.00;99.90;;;;;;5005026;28;20242;-64
2021/09/11 08:46:40;;;;;;;45.33;32.27;;;20.10;99.90;;;;;;4996681;28;20324;-65
2021/09/11 08:49:10;;;;;;;42.67;31.70;;;20.00;99.90;;;;;;4990885;28;20264;-65
2021/09/11 08:51:39;;;;;;;42.97;31.43;;;20.10;99.90;;;;;;5005881;28;20240;-65
2021/09/11 08:54:07;;;;;;;40.50;29.73;;;20.20;99.90;;;;;;5004945;28;20285;-66
2021/09/11 08:56:40;;;;;;;38.93;29.77;;;20.30;99.90;;;;;;5002256;28;20237;-65
2021/09/11 08:59:09;;;;;;;38.40;29.27;;;20.40;99.90;;;;;;5009349;28;20688;-65
2021/09/11 09:01:38;;;;;;;38.50;28.13;;;20.50;99.90;;;;;;5002881;28;20307;-65
2021/09/11 09:04:07;;;;;;;37.10;29.00;;;20.60;99.90;;;;;;5006592;28;20290;-65
2021/09/11 09:06:39;;;;;;;36.67;28.60;;;20.70;99.90;;;;;;5002076;28;20421;-65
2021/09/11 09:09:10;;;;;;;34.20;26.93;;;20.90;99.90;;;;;;5005857;28;20307;-65
2021/09/11 09:11:42;;;;;;;33.00;25.43;;;21.20;99.90;;;;;;5004701;28;20251;-66
2021/09/11 09:14:12;;;;;;;31.90;25.67;;;21.30;99.90;;;;;;5006402;28;20244;-65
2021/09/11 09:16:42;;;;;;;34.20;25.07;;;21.40;99.90;;;;;;5007554;28;20240;-65
2021/09/11 09:19:15;;;;;;;31.73;24.93;;;21.50;99.90;;;;;;5007553;28;20635;-65
2021/09/11 09:21:45;;;;;;;29.67;24.33;;;21.90;99.90;;;;;;5011466;28;20376;-65
2021/09/11 09:24:14;;;;;;;26.93;23.23;;;22.10;99.90;;;;;;5009283;28;20240;-65
2021/09/11 09:26:52;;;;;;;28.43;23.03;;;22.40;99.90;;;;;;5017144;28;20324;-65
2021/09/11 09:29:22;;;;;;;27.70;22.73;;;22.80;99.90;;;;;;5002132;28;20260;-65
2021/09/11 09:31:53;;;;;;;27.40;21.77;;;22.90;99.90;;;;;;5012829;28;20241;-65
2021/09/11 09:34:32;;;;;;;28.10;22.27;;;23.10;99.90;;;;;;4997903;28;20235;-65
2021/09/11 09:37:02;;;;;;;25.60;22.43;;;23.30;99.90;;;;;;5001847;28;20731;-65
2021/09/11 09:39:38;;;;;;;22.57;19.93;;;23.30;99.90;;;;;;5000202;28;20234;-65
2021/09/11 09:42:08;;;;;;;22.37;19.40;;;23.30;99.90;;;;;;5001796;28;20651;-66
2021/09/11 09:44:43;;;;;;;20.73;18.43;;;23.20;99.90;;;;;;5000829;28;20241;-65
2021/09/11 09:47:15;;;;;;;21.77;18.43;;;23.10;99.90;;;;;;4999877;28;20316;-64
2021/09/11 09:50:04;;;;;;;20.70;18.53;;;22.90;99.90;;;;;;5000568;28;20644;-65
2021/09/11 09:52:34;;;;;;;19.50;17.37;;;22.90;99.90;;;;;;975345;28;10002098;-64
2021/09/11 09:55:02;;;;;;;23.17;18.73;;;22.70;99.90;;;;;;5003769;28;20257;-65
2021/09/11 09:57:32;;;;;;;20.57;18.37;;;22.50;99.90;;;;;;5009484;28;20237;-65
2021/09/11 10:00:00;;;;;;;20.63;16.70;;;22.30;99.90;;;;;;5001149;28;20330;-64
2021/09/11 10:02:31;;;;;;;19.60;17.50;;;22.10;99.90;;;;;;5005687;28;20276;-65
2021/09/11 10:05:00;;;;;;;21.17;18.37;;;21.90;99.90;;;;;;5003767;28;20236;-66
2021/09/11 10:07:28;;;;;;;19.10;17.23;;;21.80;99.90;;;;;;5005161;28;20256;-65
2021/09/11 10:09:58;;;;;;;20.17;17.33;;;21.80;99.90;;;;;;4998808;28;20233;-65
2021/09/11 10:12:29;;;;;;;20.70;17.30;;;21.80;99.90;;;;;;5004024;28;20256;-65
2021/09/11 10:15:23;;;;;;;20.50;18.40;;;21.90;99.90;;;;;;5006558;28;20292;-66
2021/09/11 10:17:52;;;;;;;19.67;17.67;;;21.70;99.90;;;;;;5005232;28;20318;-65
2021/09/11 10:20:20;;;;;;;19.57;17.50;;;21.80;99.90;;;;;;4999927;28;20245;-65
2021/09/11 10:23:04;;;;;;;19.50;17.43;;;21.70;99.90;;;;;;5004491;28;20271;-65
2021/09/11 10:25:43;;;;;;;18.67;16.87;;;21.70;99.90;;;;;;5012342;28;20275;-65
2021/09/11 10:28:16;;;;;;;19.63;17.73;;;21.60;99.90;;;;;;5009522;28;20363;-64
2021/09/11 10:31:06;;;;;;;19.03;17.03;;;21.60;99.90;;;;;;5013763;28;20643;-65
2021/09/11 10:33:42;;;;;;;20.90;18.47;;;21.40;99.90;;;;;;5005945;28;20245;-65
2021/09/11 10:36:12;;;;;;;22.37;20.07;;;21.20;99.90;;;;;;5009418;28;20239;-64
2021/09/11 10:38:42;;;;;;;21.93;19.77;;;21.00;99.90;;;;;;5006932;28;20237;-65
2021/09/11 10:41:13;;;;;;;19.83;17.83;;;20.80;99.90;;;;;;5003626;28;20239;-66
2021/09/11 10:44:04;;;;;;;19.17;17.17;;;20.60;99.90;;;;;;5009477;28;20324;-65
2021/09/11 10:46:50;;;;;;;16.97;15.40;;;20.80;99.90;;;;;;5015529;28;20271;-64
2021/09/11 10:49:29;;;;;;;16.27;14.77;;;21.20;99.90;;;;;;5010834;28;20311;-65
2021/09/11 10:52:02;;;;;;;17.20;15.50;;;21.40;99.90;;;;;;5014811;28;20712;-65
2021/09/11 10:54:32;;;;;;;17.97;16.30;;;21.70;99.90;;;;;;5009630;28;20328;-65
2021/09/11 10:57:10;;;;;;;16.73;15.20;;;22.20;99.90;;;;;;5009680;28;20236;-65
2021/09/11 10:59:40;;;;;;;16.07;14.67;;;22.80;99.90;;;;;;5012790;28;20315;-65
2021/09/11 11:02:12;;;;;;;15.40;14.10;;;23.40;99.90;;;;;;5011614;28;20469;-65
2021/09/11 11:04:53;;;;;;;14.33;13.03;;;23.70;99.90;;;;;;5009895;28;20240;-64
2021/09/11 11:07:24;;;;;;;16.17;14.67;;;23.50;99.90;;;;;;5022133;28;20328;-64
2021/09/11 11:09:54;;;;;;;14.47;13.10;;;23.10;99.90;;;;;;5016033;28;20320;-65
2021/09/11 11:12:24;;;;;;;13.67;12.27;;;23.10;99.90;;;;;;5013005;28;20230;-65
2021/09/11 11:14:58;;;;;;;13.43;12.03;;;23.10;99.90;;;;;;5015895;28;20318;-66
2021/09/11 11:17:29;;;;;;;12.87;11.70;;;23.00;99.90;;;;;;5004153;28;20288;-65
2021/09/11 11:19:58;;;;;;;14.10;12.70;;;22.90;99.90;;;;;;5010383;28;20288;-65
2021/09/11 11:22:29;;;;;;;11.17;10.17;;;22.70;99.90;;;;;;5011162;28;20253;-64
2021/09/11 11:24:57;;;;;;;10.17;9.37;;;22.70;99.90;;;;;;5013290;28;20229;-64
2021/09/11 11:27:27;;;;;;;9.23;8.40;;;22.80;99.90;;;;;;5009309;28;20321;-64
2021/09/11 11:29:57;;;;;;;8.33;7.60;;;22.50;99.90;;;;;;5010752;28;20236;-66
2021/09/11 11:32:29;;;;;;;21.77;16.43;;;22.40;99.90;;;;;;5007983;28;20217;-66
2021/09/11 11:35:00;;;;;;;8.27;7.47;;;22.80;99.90;;;;;;5016170;28;20756;-64
2021/09/11 11:37:31;;;;;;;7.27;6.57;;;22.90;99.90;;;;;;5013325;28;20233;-65
2021/09/11 11:40:03;;;;;;;7.30;6.67;;;22.90;99.90;;;;;;5013906;28;20306;-65
2021/09/11 11:42:33;;;;;;;17.07;12.83;;;22.70;99.90;;;;;;5011590;28;20233;-64
2021/09/11 11:45:04;;;;;;;8.07;7.27;;;22.60;99.90;;;;;;5013091;28;20790;-66
2021/09/11 11:47:50;;;;;;;9.30;8.37;;;22.50;99.90;;;;;;5010267;28;20237;-65
2021/09/11 11:50:20;;;;;;;9.07;8.10;;;22.40;99.90;;;;;;5008882;28;20716;-64
2021/09/11 11:52:53;;;;;;;8.90;8.00;;;22.50;99.90;;;;;;5011135;28;20575;-65
2021/09/11 11:55:23;;;;;;;7.57;6.67;;;22.50;99.90;;;;;;5012499;28;20241;-64
2021/09/11 11:57:51;;;;;;;6.60;6.00;;;22.50;99.90;;;;;;5009849;28;20232;-66
2021/09/11 12:00:19;;;;;;;7.47;6.77;;;22.80;99.90;;;;;;5008099;28;20368;-65
2021/09/11 12:02:49;;;;;;;6.60;5.67;;;22.90;99.90;;;;;;5010793;28;20239;-65
2021/09/11 12:05:24;;;;;;;5.90;5.40;;;22.80;99.90;;;;;;5005179;28;20233;-64
2021/09/11 12:07:57;;;;;;;7.13;6.50;;;22.80;99.90;;;;;;5013551;28;20268;-64
2021/09/11 12:10:28;;;;;;;6.90;6.20;;;22.70;99.90;;;;;;5015998;28;20318;-65
2021/09/11 12:12:58;;;;;;;5.43;4.93;;;22.60;99.90;;;;;;5008239;28;20224;-64
2021/09/11 12:15:28;;;;;;;6.83;6.27;;;22.60;99.90;;;;;;5010588;28;20302;-65
2021/09/11 12:18:10;;;;;;;7.30;6.53;;;22.80;99.90;;;;;;5011460;28;20232;-64
2021/09/11 12:20:45;;;;;;;7.40;6.23;;;23.00;99.90;;;;;;5007998;28;20237;-65
2021/09/11 12:23:16;;;;;;;7.53;6.60;;;23.00;99.90;;;;;;5008911;28;20705;-64
2021/09/11 12:26:04;;;;;;;7.47;6.77;;;22.80;99.90;;;;;;5011062;28;20697;-65
2021/09/11 12:28:41;;;;;;;6.20;5.70;;;22.60;99.90;;;;;;5003580;28;20233;-64
2021/09/11 12:31:16;;;;;;;7.30;6.60;;;22.60;99.90;;;;;;5011042;28;20308;-65
2021/09/11 12:33:49;;;;;;;7.13;6.43;;;22.50;99.90;;;;;;5013440;28;20265;-64
2021/09/11 12:36:39;;;;;;;9.83;7.20;;;22.50;99.90;;;;;;5003509;28;20233;-64
2021/09/11 12:39:24;;;;;;;8.87;7.97;;;22.30;99.90;;;;;;5014315;28;20264;-65
2021/09/11 12:41:53;;;;;;;8.50;7.60;;;22.30;99.90;;;;;;5010199;28;20268;-65